Time;durP1;ratioP1;P1;durP2;ratioP2;P2;SDS_P1;SDS_P2;PMS_P1;PMS_P2;Temp;Humidity;BMP_temperature;BMP_pressure;BME280_temperature;BME280_humidity;BME280_pressure;Samples;Min_cycle;Max_cycle;Signal;HPM_P1;HPM_P2
2022/12/20 00:00:16;;;;;;;12.48;5.53;;;;;;;8.36;53.23;101463.41;7390054;19;20447;-62
2022/12/20 00:02:42;;;;;;;11.85;5.85;;;;;;;8.30;53.62;101470.06;7388080;19;20010;-63
2022/12/20 00:05:07;;;;;;;12.43;5.78;;;;;;;8.39;53.31;101462.78;7390749;19;19998;-63
2022/12/20 00:07:33;;;;;;;13.63;5.63;;;;;;;8.39;53.43;101453.81;7390433;19;20006;-64
2022/12/20 00:09:59;;;;;;;10.55;5.65;;;;;;;8.43;53.21;101449.34;7388518;19;20588;-62
2022/12/20 00:12:25;;;;;;;10.25;5.70;;;;;;;8.50;53.08;101442.38;7390253;19;20054;-62
2022/12/20 00:14:51;;;;;;;12.05;4.85;;;;;;;8.50;53.36;101444.31;7390165;19;20008;-63
2022/12/20 00:17:16;;;;;;;11.48;5.75;;;;;;;8.56;53.21;101439.53;7388422;19;20081;-62
2022/12/20 00:19:43;;;;;;;11.52;5.45;;;;;;;8.45;53.61;101431.63;7388263;19;20028;-65
2022/12/20 00:22:09;;;;;;;11.25;5.70;;;;;;;8.45;53.42;101428.91;7388250;19;20009;-64
2022/12/20 00:24:35;;;;;;;13.68;5.78;;;;;;;8.43;53.64;101425.69;7388956;19;20002;-63
2022/12/20 00:27:00;;;;;;;11.40;5.53;;;;;;;8.57;53.45;101419.38;7388484;19;20007;-64
2022/12/20 00:29:26;;;;;;;12.23;5.30;;;;;;;8.56;53.43;101418.53;7390133;19;19995;-63
2022/12/20 00:31:52;;;;;;;11.13;5.03;;;;;;;8.60;53.22;101416.00;7388051;19;20007;-62
2022/12/20 00:34:18;;;;;;;10.60;5.60;;;;;;;8.66;53.07;101412.03;7388417;19;19998;-64
2022/12/20 00:36:44;;;;;;;12.02;6.03;;;;;;;8.73;52.92;101417.81;7389951;19;19990;-63
2022/12/20 00:39:10;;;;;;;10.93;5.60;;;;;;;8.65;53.27;101427.56;7389543;19;20335;-63
2022/12/20 00:41:35;;;;;;;12.30;5.75;;;;;;;8.66;53.29;101423.72;7387734;19;20502;-63
2022/12/20 00:44:03;;;;;;;11.90;4.88;;;;;;;8.62;53.47;101428.19;7396050;19;20018;-63
2022/12/20 00:46:30;;;;;;;10.23;5.22;;;;;;;8.70;53.45;101430.16;7393935;19;20011;-64
2022/12/20 00:48:56;;;;;;;12.70;5.25;;;;;;;8.67;53.45;101421.81;7397193;19;20413;-63
2022/12/20 00:51:26;;;;;;;11.90;5.32;;;;;;;8.65;53.51;101424.06;7394677;19;20007;-63
2022/12/20 00:53:52;;;;;;;10.65;5.22;;;;;;;8.61;53.88;101423.06;7395804;19;19994;-62
2022/12/20 00:56:18;;;;;;;11.10;5.10;;;;;;;8.60;53.89;101418.72;7394910;19;20007;-62
2022/12/20 00:58:44;;;;;;;12.50;5.43;;;;;;;8.64;53.84;101414.28;7396613;19;20006;-62
2022/12/20 01:01:24;;;;;;;11.20;5.13;;;;;;;8.66;53.82;101415.56;7394858;19;20016;-63
2022/12/20 01:03:50;;;;;;;12.20;5.18;;;;;;;8.74;53.67;101413.19;7396501;19;20451;-63
2022/12/20 01:06:17;;;;;;;10.32;5.05;;;;;;;8.84;53.67;101416.44;7394676;19;20073;-61
2022/12/20 01:08:43;;;;;;;11.23;5.43;;;;;;;8.85;53.68;101414.53;7394116;19;20003;-61
2022/12/20 01:11:16;;;;;;;10.82;4.93;;;;;;;8.90;53.50;101417.13;7394151;19;20387;-62
2022/12/20 01:13:45;;;;;;;9.45;4.70;;;;;;;8.80;53.89;101418.19;7395904;19;20435;-62
2022/12/20 01:16:21;;;;;;;12.57;5.00;;;;;;;8.85;53.83;101409.88;7395865;19;19995;-61
2022/12/20 01:18:47;;;;;;;13.07;5.40;;;;;;;8.85;53.79;101418.06;7395479;19;20066;-61
2022/12/20 01:21:14;;;;;;;11.13;4.90;;;;;;;8.92;53.74;101408.63;7394490;19;20001;-61
2022/12/20 01:23:41;;;;;;;10.23;4.90;;;;;;;8.94;53.54;101406.41;7395032;19;20019;-62
2022/12/20 01:26:11;;;;;;;11.75;5.20;;;;;;;8.94;53.64;101418.06;7393685;19;20463;-63
2022/12/20 01:28:38;;;;;;;11.60;4.57;;;;;;;8.98;53.63;101401.91;7395848;19;20454;-62
2022/12/20 01:31:06;;;;;;;11.18;5.15;;;;;;;8.99;53.75;101404.31;7394429;19;20002;-62
2022/12/20 01:33:33;;;;;;;11.30;4.72;;;;;;;9.03;53.57;101402.59;7394770;19;19998;-61
2022/12/20 01:36:02;;;;;;;10.75;4.72;;;;;;;8.98;53.62;101400.00;7395288;19;20002;-62
2022/12/20 01:38:28;;;;;;;11.90;5.13;;;;;;;9.01;53.46;101402.06;7394935;19;20007;-61
2022/12/20 01:40:56;;;;;;;11.20;5.00;;;;;;;9.02;53.88;101408.34;7393944;19;20010;-62
2022/12/20 01:43:23;;;;;;;9.07;4.28;;;;;;;9.02;53.70;101409.13;7393997;19;20022;-60
2022/12/20 01:45:49;;;;;;;12.40;4.93;;;;;;;9.01;53.75;101406.72;7393975;19;20007;-61
2022/12/20 01:48:20;;;;;;;12.18;5.68;;;;;;;9.09;53.83;101397.78;7395275;19;20342;-62
2022/12/20 01:50:47;;;;;;;11.15;4.53;;;;;;;9.13;53.59;101398.75;7393878;19;20355;-62
2022/12/20 01:53:16;;;;;;;9.55;5.00;;;;;;;9.08;53.65;101402.44;7393664;19;20001;-62
2022/12/20 01:55:41;;;;;;;9.13;4.47;;;;;;;9.08;53.77;101405.16;7394558;19;20006;-61
2022/12/20 01:58:11;;;;;;;9.85;4.70;;;;;;;9.09;53.80;101403.22;7394275;19;20020;-61
2022/12/20 02:00:37;;;;;;;9.43;4.90;;;;;;;9.01;54.29;101401.28;7393866;19;20011;-62
2022/12/20 02:03:09;;;;;;;11.32;5.00;;;;;;;9.01;54.06;101396.63;7391196;19;20474;-62
2022/12/20 02:05:41;;;;;;;9.98;4.78;;;;;;;9.12;54.00;101394.44;7393526;19;20048;-62
2022/12/20 02:08:09;;;;;;;12.43;4.95;;;;;;;9.08;54.18;101401.63;7393784;19;20410;-62
2022/12/20 02:11:03;;;;;;;9.95;5.00;;;;;;;9.06;54.24;101391.03;7391499;19;20013;-61
2022/12/20 02:13:31;;;;;;;9.90;4.60;;;;;;;9.02;54.19;101379.19;7393651;19;20007;-63
2022/12/20 02:15:59;;;;;;;10.07;4.65;;;;;;;9.08;54.10;101375.22;7393164;19;20103;-64
2022/12/20 02:18:32;;;;;;;9.57;4.65;;;;;;;9.09;54.15;101365.91;7393491;19;20010;-63
2022/12/20 02:21:19;;;;;;;9.93;5.20;;;;;;;9.13;54.05;101363.34;7391179;19;20003;-63
2022/12/20 02:23:56;;;;;;;10.45;4.60;;;;;;;9.16;54.08;101367.38;7393291;19;20029;-63
2022/12/20 02:26:47;;;;;;;10.75;4.75;;;;;;;9.17;53.92;101364.31;7391960;19;20344;-62
2022/12/20 02:29:29;;;;;;;11.77;5.00;;;;;;;9.13;53.84;101366.06;7393398;19;20360;-62
2022/12/20 02:32:03;;;;;;;11.63;4.45;;;;;;;9.11;54.09;101364.78;7391843;19;20178;-63
2022/12/20 02:34:32;;;;;;;11.85;4.75;;;;;;;9.08;54.02;101363.50;7392709;19;20002;-63
2022/12/20 02:36:57;;;;;;;9.70;4.45;;;;;;;9.10;54.20;101361.28;7393197;19;20006;-64
2022/12/20 02:39:26;;;;;;;11.20;5.03;;;;;;;9.11;54.14;101351.97;7393019;19;20039;-63
2022/12/20 02:42:00;;;;;;;9.70;4.82;;;;;;;9.04;54.25;101359.81;7391155;19;20010;-64
2022/12/20 02:47:20;;;;;;;10.73;4.93;;;;;;;8.95;54.38;101359.78;7391306;19;20005;-65
2022/12/20 02:49:54;;;;;;;11.40;4.78;;;;;;;8.93;54.61;101361.22;7392982;19;20006;-64
2022/12/20 02:52:24;;;;;;;;;;;;;;;8.97;54.84;101351.31;7392478;19;20011;-61
2022/12/20 02:54:49;;;;;;;10.18;4.97;;;;;;;9.00;54.29;101364.28;7392279;19;19914;-61
2022/12/20 02:57:22;;;;;;;11.93;5.07;;;;;;;9.05;54.45;101347.81;7392458;19;20014;-63
2022/12/20 03:00:04;;;;;;;11.18;4.95;;;;;;;9.14;54.09;101354.06;7392305;19;20087;-63
2022/12/20 03:05:16;;;;;;;9.68;4.95;;;;;;;9.16;54.24;101351.81;7390374;19;20497;-64
2022/12/20 03:07:42;;;;;;;9.43;4.68;;;;;;;9.14;54.16;101343.16;7392305;19;19999;-63
2022/12/20 03:10:09;;;;;;;8.93;4.28;;;;;;;9.15;54.10;101346.69;7392106;19;20105;-64
2022/12/20 03:12:35;;;;;;;9.13;4.22;;;;;;;9.02;54.59;101348.44;7391131;19;20001;-63
2022/12/20 03:15:00;;;;;;;10.13;4.53;;;;;;;9.14;54.40;101348.63;7391686;19;20058;-63
2022/12/20 03:17:26;;;;;;;10.55;4.35;;;;;;;9.20;54.17;101344.63;7392110;19;19986;-63
2022/12/20 03:19:52;;;;;;;10.55;4.50;;;;;;;9.21;53.97;101343.50;7391416;19;20567;-63
2022/12/20 03:22:17;;;;;;;10.90;4.75;;;;;;;9.16;54.18;101343.66;7390268;19;19999;-63
2022/12/20 03:24:43;;;;;;;9.30;4.75;;;;;;;9.26;54.17;101340.59;7391515;19;20003;-63
2022/12/20 03:27:09;;;;;;;10.50;4.80;;;;;;;9.30;53.94;101335.34;7391053;19;20040;-63
2022/12/20 03:29:35;;;;;;;10.50;4.70;;;;;;;9.37;53.53;101341.13;7391835;19;19994;-62
2022/12/20 03:32:00;;;;;;;9.70;4.50;;;;;;;9.33;53.96;101342.06;7390273;19;20001;-63
2022/12/20 03:34:26;;;;;;;9.68;5.00;;;;;;;9.34;54.01;101343.69;7390408;19;19986;-63
2022/12/20 03:36:52;;;;;;;9.73;4.70;;;;;;;9.34;54.01;101340.97;7391346;19;20014;-62
2022/12/20 03:39:17;;;;;;;10.13;4.55;;;;;;;9.28;54.18;101345.75;7390942;19;20054;-63
2022/12/20 03:41:43;;;;;;;9.15;4.32;;;;;;;9.34;53.95;101346.41;7384844;19;20014;-59
2022/12/20 03:44:09;;;;;;;9.60;4.35;;;;;;;9.26;53.96;101337.88;7389968;19;20002;-60
2022/12/20 03:46:35;;;;;;;9.93;4.53;;;;;;;9.28;54.04;101334.84;7388406;19;20009;-60
2022/12/20 03:49:01;;;;;;;8.57;4.45;;;;;;;9.36;53.87;101334.06;7391255;19;20058;-59
2022/12/20 03:51:26;;;;;;;9.38;4.50;;;;;;;9.41;53.92;101333.09;7390946;19;20010;-59
2022/12/20 03:53:52;;;;;;;7.88;4.18;;;;;;;9.42;53.68;101334.72;7390277;19;19995;-59
2022/12/20 03:56:18;;;;;;;8.98;4.15;;;;;;;9.42;53.45;101321.88;7391336;19;20002;-59
2022/12/20 03:58:43;;;;;;;9.23;4.40;;;;;;;9.48;53.57;101330.69;7390401;19;20013;-59
2022/12/20 04:01:17;;;;;;;10.60;4.50;;;;;;;9.44;53.56;101333.25;7390197;19;20024;-58
2022/12/20 04:03:43;;;;;;;;;;;;;;;9.38;54.04;101322.84;7391236;19;20035;-58
2022/12/20 04:06:09;;;;;;;10.18;4.80;;;;;;;9.42;53.51;101330.06;7388265;19;19926;-59
2022/12/20 04:08:34;;;;;;;10.70;4.10;;;;;;;9.49;53.67;101328.78;7391476;19;20006;-58
2022/12/20 04:11:15;;;;;;;9.90;4.80;;;;;;;9.50;53.67;101335.81;7390766;19;20468;-58
2022/12/20 04:13:46;;;;;;;9.50;4.47;;;;;;;9.49;53.62;101326.06;7390311;19;20010;-58
2022/12/20 04:16:13;;;;;;;9.65;4.30;;;;;;;9.53;53.93;101335.97;7393945;19;20014;-59
2022/12/20 04:18:39;;;;;;;8.38;4.40;;;;;;;9.52;53.66;101333.59;7398063;19;19995;-59
2022/12/20 04:21:06;;;;;;;7.80;3.80;;;;;;;9.48;54.11;101336.13;7395928;19;20030;-57
2022/12/20 04:23:36;;;;;;;9.77;4.20;;;;;;;9.48;54.01;101330.69;7397087;19;20034;-57
2022/12/20 04:26:03;;;;;;;9.80;4.07;;;;;;;9.51;53.94;101332.78;7394990;19;20012;-58
2022/12/20 04:28:29;;;;;;;7.97;3.75;;;;;;;9.50;53.94;101336.63;7398428;19;20003;-58
2022/12/20 04:30:56;;;;;;;10.70;4.32;;;;;;;9.49;54.29;101332.31;7396980;19;20006;-58
2022/12/20 04:33:22;;;;;;;9.68;4.13;;;;;;;9.48;54.31;101338.84;7395209;19;20471;-58
2022/12/20 04:35:48;;;;;;;9.93;4.53;;;;;;;9.49;54.40;101332.31;7397320;19;20069;-58
2022/12/20 04:38:14;;;;;;;8.32;4.15;;;;;;;9.49;54.55;101326.06;7395956;19;20019;-58
2022/12/20 04:40:40;;;;;;;8.90;4.10;;;;;;;9.46;54.38;101320.09;7396017;19;20002;-58
2022/12/20 04:43:06;;;;;;;9.57;4.45;;;;;;;9.51;54.28;101315.63;7397104;19;20451;-58
2022/12/20 04:45:33;;;;;;;9.57;4.05;;;;;;;9.50;54.56;101309.38;7396904;19;19998;-59
2022/12/20 04:47:58;;;;;;;8.52;3.83;;;;;;;9.42;54.59;101308.25;7397030;19;20003;-59
2022/12/20 04:50:24;;;;;;;8.40;4.15;;;;;;;9.49;54.71;101304.25;7396736;19;19995;-59
2022/12/20 04:55:38;;;;;;;;;;;;;;;9.44;55.18;101308.72;7397141;19;19998;-59
2022/12/20 04:58:04;;;;;;;9.23;3.67;;;;;;;9.41;54.91;101309.38;7397099;19;19919;-59
2022/12/20 05:00:31;;;;;;;11.30;4.18;;;;;;;9.49;54.73;101309.72;7395477;19;20009;-58
2022/12/20 05:02:57;;;;;;;9.48;4.03;;;;;;;9.53;54.44;101314.16;7396485;19;20023;-59
2022/12/20 05:05:23;;;;;;;8.45;3.80;;;;;;;9.56;54.44;101312.75;7396067;19;20038;-58
2022/12/20 05:07:49;;;;;;;9.25;3.95;;;;;;;9.44;55.16;101305.22;7397541;19;20243;-58
2022/12/20 05:10:15;;;;;;;8.15;4.10;;;;;;;9.51;54.90;101310.97;7395761;19;20069;-58
2022/12/20 05:12:41;;;;;;;10.20;3.83;;;;;;;9.40;55.37;101310.50;7395930;19;20007;-58
2022/12/20 05:15:07;;;;;;;9.52;3.75;;;;;;;9.37;55.39;101316.59;7397190;19;20025;-58
2022/12/20 05:17:33;;;;;;;8.77;3.85;;;;;;;9.41;55.36;101305.84;7396393;19;20414;-59
2022/12/20 05:19:59;;;;;;;9.75;3.85;;;;;;;9.51;55.15;101305.53;7396323;19;20006;-59
2022/12/20 05:27:56;;;;;;;7.80;3.63;;;;;;;9.55;55.47;101284.69;7395407;19;19998;-59
2022/12/20 05:30:23;;;;;;;8.23;3.90;;;;;;;9.49;55.96;101277.81;7396346;19;19995;-59
2022/12/20 05:32:49;;;;;;;9.57;3.92;;;;;;;9.58;55.85;101281.34;7393336;19;19995;-59
2022/12/20 05:35:15;;;;;;;8.23;3.70;;;;;;;9.44;56.28;101284.22;7393977;19;19995;-58
2022/12/20 05:37:41;;;;;;;8.95;4.10;;;;;;;9.53;56.34;101286.13;7395167;19;20015;-58
2022/12/20 05:40:07;;;;;;;9.45;4.03;;;;;;;9.64;56.17;101290.16;7395194;19;19998;-58
2022/12/20 05:42:33;;;;;;;9.98;4.25;;;;;;;9.49;56.91;101280.53;7391186;19;20017;-59
2022/12/20 05:45:00;;;;;;;9.57;4.13;;;;;;;9.45;57.25;101287.75;7395264;19;20062;-58
2022/12/20 05:47:27;;;;;;;11.05;4.28;;;;;;;9.41;57.77;101284.06;7393469;19;20009;-59
2022/12/20 05:49:54;;;;;;;9.57;4.38;;;;;;;9.48;57.32;101298.00;7395730;19;20444;-59
2022/12/20 05:52:20;;;;;;;10.15;4.50;;;;;;;9.47;57.66;101293.69;7392351;19;20027;-58
2022/12/20 05:54:45;;;;;;;9.43;3.95;;;;;;;9.64;57.19;101290.16;7394841;19;19990;-58
2022/12/20 05:57:11;;;;;;;11.38;4.65;;;;;;;9.66;56.99;101303.47;7393353;19;20002;-58
2022/12/20 05:59:37;;;;;;;10.15;4.63;;;;;;;9.35;58.36;101307.13;7394530;19;20489;-58
2022/12/20 06:02:03;;;;;;;9.55;4.40;;;;;;;9.39;58.31;101319.00;7392696;19;20108;-57
2022/12/20 06:04:30;;;;;;;11.25;4.85;;;;;;;9.33;58.53;101320.28;7394703;19;20014;-58
2022/12/20 06:06:56;;;;;;;9.93;4.75;;;;;;;9.37;58.64;101321.25;7393700;19;20042;-59
2022/12/20 06:09:22;;;;;;;9.77;4.93;;;;;;;9.41;58.55;101323.00;7394460;19;20000;-59
2022/12/20 06:11:47;;;;;;;12.32;5.35;;;;;;;9.30;58.61;101326.34;7393059;19;20002;-60
2022/12/20 06:14:13;;;;;;;11.60;5.35;;;;;;;9.43;58.52;101323.50;7394209;19;19999;-59
2022/12/20 06:16:39;;;;;;;11.65;5.90;;;;;;;9.53;58.14;101318.84;7394118;19;20011;-59
2022/12/20 06:19:04;;;;;;;11.85;5.85;;;;;;;9.58;58.01;101321.38;7393860;19;20066;-59
2022/12/20 06:21:30;;;;;;;14.18;5.43;;;;;;;9.56;58.03;101310.81;7393505;19;19995;-59
2022/12/20 06:23:56;;;;;;;11.63;5.68;;;;;;;9.58;57.82;101316.75;7393098;19;19998;-59
2022/12/20 06:26:22;;;;;;;11.27;5.47;;;;;;;9.56;58.21;101321.72;7391075;19;19994;-58
2022/12/20 06:28:51;;;;;;;12.63;5.53;;;;;;;9.60;57.65;101311.81;7392089;19;20073;-58
2022/12/20 06:31:17;;;;;;;10.70;5.40;;;;;;;9.68;57.45;101301.22;7392213;19;20013;-58
2022/12/20 06:33:43;;;;;;;10.00;4.85;;;;;;;9.59;57.94;101295.78;7393305;19;19995;-58
2022/12/20 06:36:09;;;;;;;10.68;5.40;;;;;;;9.64;57.61;101299.13;7393744;19;20462;-58
2022/12/20 06:38:35;;;;;;;11.02;5.53;;;;;;;9.63;57.90;101283.09;7390504;19;20445;-58
2022/12/20 06:41:01;;;;;;;13.00;5.85;;;;;;;9.58;58.04;101297.69;7390550;19;19999;-58
2022/12/20 06:43:27;;;;;;;12.05;5.25;;;;;;;9.51;58.14;101300.06;7392933;19;20005;-58
2022/12/20 06:45:53;;;;;;;10.35;5.05;;;;;;;9.51;57.92;101291.91;7392098;19;20470;-57
2022/12/20 06:48:20;;;;;;;11.88;4.80;;;;;;;9.52;58.00;101290.00;7393132;19;20007;-58
2022/12/20 06:50:49;;;;;;;11.85;4.95;;;;;;;9.49;58.18;101291.44;7390726;19;20003;-57
2022/12/20 06:53:15;;;;;;;10.48;5.53;;;;;;;9.53;57.82;101291.56;7391820;19;20526;-58
2022/12/20 06:55:41;;;;;;;12.90;5.57;;;;;;;9.61;57.48;101296.25;7393998;19;20002;-58
2022/12/20 06:58:07;;;;;;;9.95;5.35;;;;;;;9.47;57.90;101290.94;7393077;19;19999;-59
2022/12/20 07:00:32;;;;;;;10.48;4.65;;;;;;;9.49;57.87;101280.53;7391412;19;20617;-59
2022/12/20 07:02:58;;;;;;;10.30;5.07;;;;;;;9.54;57.89;101277.63;7391491;19;19994;-59
2022/12/20 07:05:24;;;;;;;9.68;4.68;;;;;;;9.51;57.86;101277.47;7392414;19;20006;-59
2022/12/20 07:07:50;;;;;;;10.93;5.07;;;;;;;9.51;57.86;101280.19;7391247;19;20002;-59
2022/12/20 07:10:16;;;;;;;9.77;5.05;;;;;;;9.45;58.09;101277.66;7393114;19;20422;-59
2022/12/20 07:12:42;;;;;;;12.88;5.00;;;;;;;9.48;57.72;101278.91;7391948;19;20018;-59
2022/12/20 07:15:08;;;;;;;10.55;4.82;;;;;;;9.57;57.49;101282.44;7392027;19;20445;-59
2022/12/20 07:17:34;;;;;;;9.77;5.18;;;;;;;9.51;57.61;101283.72;7392632;19;20019;-59
2022/12/20 07:20:00;;;;;;;11.07;5.65;;;;;;;9.52;57.58;101284.53;7391853;19;20471;-59
2022/12/20 07:22:26;;;;;;;10.32;4.90;;;;;;;9.47;57.59;101285.50;7389651;19;19999;-60
2022/12/20 07:24:51;;;;;;;13.43;5.00;;;;;;;9.56;57.30;101285.50;7389803;19;19995;-60
2022/12/20 07:27:17;;;;;;;13.77;5.07;;;;;;;9.51;57.50;101286.44;7389823;19;20062;-59
2022/12/20 07:29:43;;;;;;;12.93;5.15;;;;;;;9.57;57.25;101293.34;7389719;19;20351;-59
2022/12/20 07:32:16;;;;;;;9.75;4.78;;;;;;;9.61;57.07;101290.81;7390734;19;19994;-59
2022/12/20 07:34:45;;;;;;;10.15;4.70;;;;;;;9.60;57.10;101287.28;7392138;19;20003;-59
2022/12/20 07:37:14;;;;;;;11.10;5.03;;;;;;;9.59;56.84;101288.41;7389831;19;20062;-59
2022/12/20 07:39:51;;;;;;;11.18;5.10;;;;;;;9.60;56.79;101287.28;7390633;19;20070;-59
2022/12/20 07:42:29;;;;;;;11.30;4.65;;;;;;;9.63;56.59;101285.81;7386750;19;20014;-59
2022/12/20 07:44:55;;;;;;;10.00;4.63;;;;;;;9.67;56.63;101283.25;7389739;19;20065;-60
2022/12/20 07:47:21;;;;;;;9.48;4.78;;;;;;;9.52;56.82;101277.16;7389986;19;20007;-59
2022/12/20 07:49:50;;;;;;;10.63;4.97;;;;;;;9.63;56.54;101274.91;7391058;19;20472;-59
2022/12/20 07:52:20;;;;;;;12.40;4.88;;;;;;;9.64;56.58;101273.81;7402270;19;20013;-59
2022/12/20 07:54:50;;;;;;;9.50;4.53;;;;;;;9.51;56.76;101277.47;7404301;19;20023;-59
2022/12/20 07:57:42;;;;;;;10.70;4.70;;;;;;;9.54;56.81;101268.66;7404896;19;20142;-59
2022/12/20 08:00:09;;;;;;;12.13;4.55;;;;;;;9.70;56.05;101268.97;7403190;19;20006;-59
2022/12/20 08:02:48;;;;;;;11.63;4.28;;;;;;;9.64;56.11;101265.63;7402762;19;20013;-59
2022/12/20 08:05:14;;;;;;;14.18;4.70;;;;;;;9.71;55.88;101254.22;7403320;19;20002;-59
2022/12/20 08:07:42;;;;;;;9.70;4.18;;;;;;;9.70;56.11;101247.16;7406115;19;20007;-59
2022/12/20 08:10:10;;;;;;;8.68;4.05;;;;;;;9.83;55.76;101251.63;7404247;19;20002;-59
2022/12/20 08:12:37;;;;;;;8.45;4.05;;;;;;;9.81;55.69;101251.16;7402866;19;20002;-59
2022/12/20 08:15:03;;;;;;;9.80;4.22;;;;;;;9.84;55.76;101253.25;7403858;19;20007;-59
2022/12/20 08:17:28;;;;;;;12.02;4.55;;;;;;;9.73;56.13;101246.53;7403066;19;19999;-60
2022/12/20 08:19:56;;;;;;;10.38;4.68;;;;;;;9.79;55.94;101247.97;7405068;19;20036;-58
2022/12/20 08:22:40;;;;;;;10.32;4.25;;;;;;;9.80;55.88;101253.09;7404166;19;20371;-57
2022/12/20 08:25:06;;;;;;;9.68;4.30;;;;;;;9.76;56.17;101251.34;7408784;19;19999;-57
2022/12/20 08:27:32;;;;;;;9.25;4.40;;;;;;;9.80;55.91;101249.53;7401746;19;20380;-58
2022/12/20 08:29:59;;;;;;;10.07;4.72;;;;;;;9.71;56.40;101248.78;7404201;19;19998;-58
2022/12/20 08:32:28;;;;;;;8.95;4.25;;;;;;;9.93;55.84;101253.22;7401889;19;20019;-58
2022/12/20 08:34:57;;;;;;;10.32;4.22;;;;;;;10.04;55.62;101250.94;7405303;19;20010;-59
2022/12/20 08:37:23;;;;;;;8.93;4.60;;;;;;;9.93;55.74;101256.72;7403277;19;19998;-58
2022/12/20 08:39:48;;;;;;;8.52;4.47;;;;;;;9.93;55.86;101248.53;7403624;19;20002;-58
2022/12/20 08:42:14;;;;;;;9.10;4.43;;;;;;;9.92;55.93;101244.22;7400808;19;20018;-58
2022/12/20 08:44:40;;;;;;;9.57;4.53;;;;;;;10.03;55.88;101243.88;7402894;19;20005;-57
2022/12/20 08:47:06;;;;;;;8.27;4.18;;;;;;;10.11;55.75;101243.03;7401150;19;20003;-57
2022/12/20 08:49:31;;;;;;;12.45;4.60;;;;;;;10.07;56.09;101240.19;7402247;19;20031;-57
2022/12/20 08:51:57;;;;;;;10.77;5.18;;;;;;;10.08;56.26;101227.31;7401198;19;20463;-58
2022/12/20 08:54:23;;;;;;;8.10;4.50;;;;;;;10.13;56.27;101235.31;7402933;19;20006;-57
2022/12/20 08:56:49;;;;;;;10.98;4.80;;;;;;;10.16;56.12;101237.41;7401776;19;20482;-57
2022/12/20 08:59:15;;;;;;;8.75;4.43;;;;;;;10.23;55.83;101237.69;7403513;19;20003;-57
2022/12/20 09:01:41;;;;;;;9.93;4.47;;;;;;;10.34;55.55;101244.38;7401558;19;20002;-57
2022/12/20 09:04:09;;;;;;;9.55;4.10;;;;;;;10.12;56.25;101247.38;7392015;19;19998;-57
2022/12/20 09:06:35;;;;;;;9.95;4.15;;;;;;;10.10;56.56;101241.44;7395368;19;20003;-57
2022/12/20 09:09:02;;;;;;;8.85;4.32;;;;;;;10.19;56.11;101242.22;7395643;19;20019;-57
2022/12/20 09:11:28;;;;;;;13.15;5.93;;;;;;;10.30;55.92;101238.00;7395098;19;20038;-56
2022/12/20 09:13:56;;;;;;;10.35;4.20;;;;;;;10.35;55.76;101235.06;7393967;19;20021;-56
2022/12/20 09:16:24;;;;;;;8.80;4.18;;;;;;;10.39;55.51;101232.47;7395846;19;20474;-57
2022/12/20 09:18:53;;;;;;;7.68;3.65;;;;;;;10.39;55.38;101235.22;7395489;19;20006;-57
2022/12/20 09:21:29;;;;;;;10.35;4.20;;;;;;;10.46;55.54;101223.78;7391259;19;20047;-57
2022/12/20 09:23:55;;;;;;;8.77;4.18;;;;;;;10.55;54.94;101219.06;7395030;19;19998;-57
2022/12/20 09:26:23;;;;;;;10.13;4.50;;;;;;;10.50;55.36;101208.31;7395232;19;20462;-57
2022/12/20 09:28:49;;;;;;;8.35;4.07;;;;;;;10.58;55.17;101210.19;7393612;19;20452;-57
2022/12/20 09:31:18;;;;;;;8.77;4.10;;;;;;;10.55;55.29;101217.13;7394609;19;20010;-57
2022/12/20 09:33:44;;;;;;;11.82;4.05;;;;;;;10.51;55.26;101209.94;7395239;19;20003;-58
2022/12/20 09:36:12;;;;;;;9.30;3.85;;;;;;;10.48;55.38;101207.88;7395056;19;19998;-57
2022/12/20 09:38:38;;;;;;;9.50;3.80;;;;;;;10.64;55.02;101206.16;7393718;19;20003;-58
2022/12/20 09:41:43;;;;;;;7.47;3.65;;;;;;;10.52;54.96;101206.09;7388531;19;20006;-61
2022/12/20 09:44:24;;;;;;;7.15;3.75;;;;;;;10.67;54.62;101213.69;7396241;19;20014;-59
2022/12/20 09:46:57;;;;;;;9.57;3.70;;;;;;;10.78;54.22;101207.84;7393427;19;19999;-58
2022/12/20 09:49:29;;;;;;;7.90;3.90;;;;;;;10.78;54.21;101216.84;7394766;19;20001;-58
2022/12/20 09:52:19;;;;;;;8.13;3.88;;;;;;;10.67;54.25;101227.34;7393511;19;20468;-58
2022/12/20 09:55:03;;;;;;;9.43;3.80;;;;;;;10.54;54.86;101220.19;7394511;19;19999;-57
2022/12/20 09:58:02;;;;;;;9.40;3.95;;;;;;;10.59;54.55;101228.19;7395597;19;20062;-59
2022/12/20 10:00:29;;;;;;;11.68;4.20;;;;;;;10.64;54.34;101208.88;7395102;19;20002;-59
2022/12/20 10:02:55;;;;;;;8.40;3.53;;;;;;;10.62;54.34;101211.16;7391514;19;19999;-59
2022/12/20 10:05:50;;;;;;;9.75;4.10;;;;;;;10.70;54.36;101196.66;7394602;19;20003;-58
2022/12/20 10:08:38;;;;;;;10.82;3.97;;;;;;;10.85;53.97;101194.47;7394373;19;20454;-58
2022/12/20 10:11:19;;;;;;;10.68;3.97;;;;;;;10.73;54.24;101190.50;7393138;19;20013;-59
2022/12/20 10:13:58;;;;;;;7.57;4.03;;;;;;;10.79;54.29;101182.16;7395769;19;19999;-58
2022/12/20 10:16:41;;;;;;;9.68;4.22;;;;;;;10.92;53.82;101186.53;7393599;19;20020;-57
2022/12/20 10:19:45;;;;;;;9.63;4.13;;;;;;;10.85;53.73;101170.69;7392901;19;20048;-59
2022/12/20 10:22:56;;;;;;;10.18;4.10;;;;;;;10.78;53.93;101175.88;7392747;19;20002;-58
2022/12/20 10:25:29;;;;;;;9.68;3.83;;;;;;;10.83;53.99;101170.22;7392115;19;20313;-58
2022/12/20 10:27:56;;;;;;;7.57;3.97;;;;;;;11.01;53.62;101173.59;7393556;19;19998;-57
2022/12/20 10:30:25;;;;;;;7.60;3.83;;;;;;;10.89;53.91;101165.38;7393599;19;20002;-59
2022/12/20 10:32:55;;;;;;;8.30;4.15;;;;;;;10.92;53.37;101148.28;7390882;19;20629;-58
2022/12/20 10:35:30;;;;;;;10.07;4.07;;;;;;;10.94;53.58;101148.78;7392929;19;19995;-59
2022/12/20 10:37:55;;;;;;;8.45;3.80;;;;;;;11.07;53.15;101142.22;7393999;19;20025;-58
2022/12/20 10:40:36;;;;;;;9.02;3.90;;;;;;;11.20;52.90;101153.19;7391517;19;19998;-57
2022/12/20 10:43:05;;;;;;;11.63;4.05;;;;;;;11.20;52.64;101153.97;7390085;19;20020;-58
2022/12/20 10:45:40;;;;;;;8.40;3.70;;;;;;;11.29;52.34;101148.44;7393121;19;20379;-57
2022/12/20 10:48:27;;;;;;;11.90;4.43;;;;;;;10.78;53.25;101151.31;7391025;19;20450;-57
2022/12/20 10:51:22;;;;;;;8.95;3.58;;;;;;;11.11;52.27;101147.81;7392771;19;20006;-58
2022/12/20 10:53:55;;;;;;;8.10;3.40;;;;;;;11.23;52.17;101145.09;7391013;19;20006;-59
2022/12/20 10:56:26;;;;;;;8.05;3.70;;;;;;;11.11;52.49;101134.94;7392252;19;19999;-59
2022/12/20 10:58:58;;;;;;;8.75;3.63;;;;;;;11.26;52.23;101132.72;7388779;19;20024;-59
2022/12/20 11:01:28;;;;;;;9.10;3.45;;;;;;;11.22;52.56;101131.78;7391220;19;19999;-57
2022/12/20 11:04:23;;;;;;;7.47;3.47;;;;;;;11.37;51.99;101139.34;7391988;19;20055;-58
2022/12/20 11:06:50;;;;;;;8.38;3.53;;;;;;;11.28;52.06;101133.16;7390407;19;20002;-58
2022/12/20 11:09:21;;;;;;;10.00;3.65;;;;;;;11.32;52.12;101139.53;7392597;19;20005;-58
2022/12/20 11:12:00;;;;;;;6.00;3.10;;;;;;;11.22;51.62;101129.03;7391227;19;20040;-58
2022/12/20 11:14:27;;;;;;;11.18;3.28;;;;;;;11.27;51.85;101139.75;7390188;19;19991;-58
2022/12/20 11:16:55;;;;;;;8.02;3.50;;;;;;;11.15;52.09;101135.06;7391098;19;19997;-57
2022/12/20 11:19:30;;;;;;;7.03;3.65;;;;;;;11.25;51.92;101131.91;7392507;19;20097;-58
2022/12/20 11:22:09;;;;;;;7.22;3.42;;;;;;;11.29;51.63;101123.84;7391234;19;20081;-58
2022/12/20 11:24:57;;;;;;;6.82;3.20;;;;;;;11.04;51.86;101140.16;7392085;19;20059;-58
2022/12/20 11:27:43;;;;;;;8.80;3.67;;;;;;;11.18;51.84;101137.13;7388960;19;20168;-59
2022/12/20 11:30:20;;;;;;;6.72;3.28;;;;;;;11.22;51.53;101140.78;7392497;19;20021;-57
2022/12/20 11:33:25;;;;;;;8.32;4.15;;;;;;;11.11;52.15;101129.47;7388874;19;20007;-62
2022/12/20 11:36:20;;;;;;;11.35;3.72;;;;;;;11.12;51.87;101124.81;7392295;19;20035;-58
2022/12/20 11:38:56;;;;;;;7.20;3.63;;;;;;;11.05;52.46;101122.63;7391397;19;19999;-59
2022/12/20 11:41:31;;;;;;;7.75;3.15;;;;;;;11.08;52.35;101115.69;7390769;19;19995;-58
2022/12/20 11:44:15;;;;;;;9.68;3.70;;;;;;;11.14;52.35;101116.28;7389868;19;20088;-58
2022/12/20 11:47:08;;;;;;;14.32;4.35;;;;;;;11.13;52.33;101109.22;7390312;19;20026;-58
2022/12/20 11:50:01;;;;;;;9.00;4.38;;;;;;;11.05;52.97;101108.97;7389088;19;20003;-58
2022/12/20 11:52:38;;;;;;;8.80;4.30;;;;;;;11.17;52.51;101115.59;7387485;19;19999;-58